sensor_id;sensor_type;location;lat;lon;timestamp;pressure;altitude;pressure_sealevel;temperature;humidity
62680;BME280;68213;40.528;44.712;2023-04-09T00:00:38;80651.16;;;-0.88;54.87
62680;BME280;68213;40.528;44.712;2023-04-09T00:01:39;80648.78;;;-0.86;54.56
62680;BME280;68213;40.528;44.712;2023-04-09T00:02:41;80650.34;;;-0.83;54.23
62680;BME280;68213;40.528;44.712;2023-04-09T00:03:41;80644.34;;;-0.77;54.30
62680;BME280;68213;40.528;44.712;2023-04-09T00:04:42;80650.72;;;-0.71;54.02
62680;BME280;68213;40.528;44.712;2023-04-09T00:05:43;80651.09;;;-0.67;54.13
62680;BME280;68213;40.528;44.712;2023-04-09T00:06:43;80648.34;;;-0.69;54.68
62680;BME280;68213;40.528;44.712;2023-04-09T00:07:44;80642.44;;;-0.77;55.20
62680;BME280;68213;40.528;44.712;2023-04-09T00:08:45;80655.53;;;-0.75;55.24
62680;BME280;68213;40.528;44.712;2023-04-09T00:09:45;80650.19;;;-0.77;55.11
62680;BME280;68213;40.528;44.712;2023-04-09T00:10:49;80627.25;;;-0.88;55.50
62680;BME280;68213;40.528;44.712;2023-04-09T00:11:50;80650.03;;;-0.79;55.44
62680;BME280;68213;40.528;44.712;2023-04-09T00:12:50;80650.91;;;-0.76;55.73
62680;BME280;68213;40.528;44.712;2023-04-09T00:13:51;80622.00;;;-1.04;56.13
62680;BME280;68213;40.528;44.712;2023-04-09T00:14:51;80639.97;;;-0.90;56.18
62680;BME280;68213;40.528;44.712;2023-04-09T00:15:52;80642.56;;;-0.90;56.38
62680;BME280;68213;40.528;44.712;2023-04-09T00:16:53;80644.28;;;-0.85;56.24
62680;BME280;68213;40.528;44.712;2023-04-09T00:17:54;80640.56;;;-0.76;55.92
62680;BME280;68213;40.528;44.712;2023-04-09T00:18:55;80640.41;;;-0.71;55.58
62680;BME280;68213;40.528;44.712;2023-04-09T00:19:56;80640.59;;;-0.69;55.91
62680;BME280;68213;40.528;44.712;2023-04-09T00:20:56;80634.94;;;-0.67;55.93
62680;BME280;68213;40.528;44.712;2023-04-09T00:21:57;80640.78;;;-0.67;55.55
62680;BME280;68213;40.528;44.712;2023-04-09T00:22:58;80636.81;;;-0.68;55.36
62680;BME280;68213;40.528;44.712;2023-04-09T00:23:58;80639.41;;;-0.68;55.32
62680;BME280;68213;40.528;44.712;2023-04-09T00:24:59;80649.78;;;-0.60;55.49
62680;BME280;68213;40.528;44.712;2023-04-09T00:25:59;80645.28;;;-0.59;55.28
62680;BME280;68213;40.528;44.712;2023-04-09T00:27:00;80647.88;;;-0.59;55.53
62680;BME280;68213;40.528;44.712;2023-04-09T00:29:03;80652.19;;;-0.54;55.19
62680;BME280;68213;40.528;44.712;2023-04-09T00:30:04;80648.53;;;-0.67;56.19
62680;BME280;68213;40.528;44.712;2023-04-09T00:31:05;80647.69;;;-0.61;55.61
62680;BME280;68213;40.528;44.712;2023-04-09T00:32:06;80645.25;;;-0.67;56.41
62680;BME280;68213;40.528;44.712;2023-04-09T00:33:09;80646.63;;;-0.66;56.81
62680;BME280;68213;40.528;44.712;2023-04-09T00:34:10;80651.38;;;-0.78;57.32
62680;BME280;68213;40.528;44.712;2023-04-09T00:35:10;80641.28;;;-1.05;58.23
62680;BME280;68213;40.528;44.712;2023-04-09T00:36:11;80656.44;;;-1.01;58.75
62680;BME280;68213;40.528;44.712;2023-04-09T00:37:12;80659.88;;;-0.99;58.12
62680;BME280;68213;40.528;44.712;2023-04-09T00:38:12;80658.31;;;-1.02;58.70
62680;BME280;68213;40.528;44.712;2023-04-09T00:39:13;80655.03;;;-1.02;58.32
62680;BME280;68213;40.528;44.712;2023-04-09T00:40:14;80656.75;;;-1.05;57.78
62680;BME280;68213;40.528;44.712;2023-04-09T00:41:15;80657.75;;;-1.08;58.80
62680;BME280;68213;40.528;44.712;2023-04-09T00:42:16;80653.97;;;-1.07;58.54
62680;BME280;68213;40.528;44.712;2023-04-09T00:43:20;80662.44;;;-1.06;58.73
62680;BME280;68213;40.528;44.712;2023-04-09T00:44:20;80674.63;;;-1.07;59.38
62680;BME280;68213;40.528;44.712;2023-04-09T00:45:21;80665.66;;;-1.35;60.94
62680;BME280;68213;40.528;44.712;2023-04-09T00:46:22;80653.53;;;-1.48;60.32
62680;BME280;68213;40.528;44.712;2023-04-09T00:47:23;80668.94;;;-1.34;59.51
62680;BME280;68213;40.528;44.712;2023-04-09T00:48:24;80666.13;;;-1.44;60.57
62680;BME280;68213;40.528;44.712;2023-04-09T00:49:25;80665.47;;;-1.37;59.01
62680;BME280;68213;40.528;44.712;2023-04-09T00:50:26;80665.16;;;-1.33;59.95
62680;BME280;68213;40.528;44.712;2023-04-09T00:51:27;80643.59;;;-1.44;59.32
62680;BME280;68213;40.528;44.712;2023-04-09T00:52:28;80662.09;;;-1.32;59.88
62680;BME280;68213;40.528;44.712;2023-04-09T00:53:31;80660.19;;;-1.31;59.88
62680;BME280;68213;40.528;44.712;2023-04-09T00:54:32;80648.25;;;-1.42;59.78
62680;BME280;68213;40.528;44.712;2023-04-09T00:55:33;80663.09;;;-1.35;59.46
62680;BME280;68213;40.528;44.712;2023-04-09T00:56:35;80670.16;;;-1.35;59.99
62680;BME280;68213;40.528;44.712;2023-04-09T00:57:36;80661.34;;;-1.40;60.42
62680;BME280;68213;40.528;44.712;2023-04-09T00:58:39;80659.41;;;-1.47;59.94
62680;BME280;68213;40.528;44.712;2023-04-09T00:59:41;80669.72;;;-1.47;60.91
62680;BME280;68213;40.528;44.712;2023-04-09T01:00:42;80677.31;;;-1.41;60.56
62680;BME280;68213;40.528;44.712;2023-04-09T01:01:42;80675.00;;;-1.53;60.74
62680;BME280;68213;40.528;44.712;2023-04-09T01:02:45;80671.59;;;-1.48;60.50
62680;BME280;68213;40.528;44.712;2023-04-09T01:03:46;80667.31;;;-1.45;60.20
62680;BME280;68213;40.528;44.712;2023-04-09T01:04:50;80663.72;;;-1.42;59.55
62680;BME280;68213;40.528;44.712;2023-04-09T01:06:09;80666.50;;;-1.40;59.93
62680;BME280;68213;40.528;44.712;2023-04-09T01:08:45;80668.00;;;-1.23;56.18
62680;BME280;68213;40.528;44.712;2023-04-09T01:11:37;80674.44;;;-1.09;57.72
62680;BME280;68213;40.528;44.712;2023-04-09T01:13:48;80670.69;;;-1.29;59.86
62680;BME280;68213;40.528;44.712;2023-04-09T01:16:11;80662.66;;;-1.25;57.25
62680;BME280;68213;40.528;44.712;2023-04-09T01:17:18;80672.09;;;-1.28;60.13
62680;BME280;68213;40.528;44.712;2023-04-09T01:18:28;80674.66;;;-1.28;59.42
62680;BME280;68213;40.528;44.712;2023-04-09T01:19:48;80674.16;;;-1.26;58.37
62680;BME280;68213;40.528;44.712;2023-04-09T01:21:11;80668.56;;;-1.17;55.84
62680;BME280;68213;40.528;44.712;2023-04-09T01:22:28;80669.78;;;-1.10;58.46
62680;BME280;68213;40.528;44.712;2023-04-09T01:24:08;80669.03;;;-1.19;57.78
62680;BME280;68213;40.528;44.712;2023-04-09T01:25:34;80678.34;;;-1.16;57.71
62680;BME280;68213;40.528;44.712;2023-04-09T01:28:02;80670.34;;;-1.04;56.80
62680;BME280;68213;40.528;44.712;2023-04-09T01:29:04;80675.09;;;-1.16;57.87
62680;BME280;68213;40.528;44.712;2023-04-09T01:30:07;80672.69;;;-1.14;56.65
62680;BME280;68213;40.528;44.712;2023-04-09T01:31:13;80688.34;;;-1.12;57.36
62680;BME280;68213;40.528;44.712;2023-04-09T01:32:16;80688.72;;;-1.08;56.09
62680;BME280;68213;40.528;44.712;2023-04-09T01:33:19;80682.75;;;-1.03;54.69
62680;BME280;68213;40.528;44.712;2023-04-09T01:34:20;80675.75;;;-0.94;53.55
62680;BME280;68213;40.528;44.712;2023-04-09T01:35:22;80677.34;;;-0.84;53.17
62680;BME280;68213;40.528;44.712;2023-04-09T01:36:25;80689.00;;;-0.90;56.43
62680;BME280;68213;40.528;44.712;2023-04-09T01:37:26;80682.28;;;-0.93;54.03
62680;BME280;68213;40.528;44.712;2023-04-09T01:38:27;80687.84;;;-0.82;52.89
62680;BME280;68213;40.528;44.712;2023-04-09T01:39:31;80686.19;;;-0.71;52.84
62680;BME280;68213;40.528;44.712;2023-04-09T01:40:32;80691.09;;;-0.60;53.01
62680;BME280;68213;40.528;44.712;2023-04-09T01:41:36;80690.38;;;-0.60;54.50
62680;BME280;68213;40.528;44.712;2023-04-09T01:42:38;80689.88;;;-0.59;53.26
62680;BME280;68213;40.528;44.712;2023-04-09T01:43:40;80658.47;;;-0.71;51.57
62680;BME280;68213;40.528;44.712;2023-04-09T01:44:41;80693.69;;;-0.52;52.62
62680;BME280;68213;40.528;44.712;2023-04-09T01:45:44;80684.22;;;-0.50;52.28
62680;BME280;68213;40.528;44.712;2023-04-09T01:46:49;80674.81;;;-0.39;51.86
62680;BME280;68213;40.528;44.712;2023-04-09T01:47:50;80670.88;;;-0.33;51.07
62680;BME280;68213;40.528;44.712;2023-04-09T01:48:51;80663.84;;;-0.24;50.65
62680;BME280;68213;40.528;44.712;2023-04-09T01:49:53;80661.78;;;-0.18;51.32
62680;BME280;68213;40.528;44.712;2023-04-09T01:50:57;80668.38;;;-0.09;51.70
62680;BME280;68213;40.528;44.712;2023-04-09T01:51:58;80670.97;;;-0.02;51.43
62680;BME280;68213;40.528;44.712;2023-04-09T01:53:00;80670.09;;;-0.12;52.92
62680;BME280;68213;40.528;44.712;2023-04-09T01:54:03;80667.88;;;-0.08;52.17
62680;BME280;68213;40.528;44.712;2023-04-09T01:55:07;80662.69;;;-0.08;51.52
62680;BME280;68213;40.528;44.712;2023-04-09T01:56:08;80665.63;;;-0.04;51.68
62680;BME280;68213;40.528;44.712;2023-04-09T01:57:12;80663.22;;;-0.02;51.42
62680;BME280;68213;40.528;44.712;2023-04-09T01:58:13;80645.47;;;-0.13;51.45
62680;BME280;68213;40.528;44.712;2023-04-09T01:59:13;80653.88;;;-0.20;53.29
62680;BME280;68213;40.528;44.712;2023-04-09T02:00:15;80662.69;;;-0.15;53.37
62680;BME280;68213;40.528;44.712;2023-04-09T02:01:22;80662.31;;;-0.20;54.08
62680;BME280;68213;40.528;44.712;2023-04-09T02:02:30;80665.03;;;-0.25;53.70
62680;BME280;68213;40.528;44.712;2023-04-09T02:03:45;80663.75;;;-0.47;54.88
62680;BME280;68213;40.528;44.712;2023-04-09T02:04:50;80671.19;;;-0.44;54.03
62680;BME280;68213;40.528;44.712;2023-04-09T02:06:12;80671.19;;;-0.44;54.88
62680;BME280;68213;40.528;44.712;2023-04-09T02:07:29;80667.69;;;-0.54;54.97
62680;BME280;68213;40.528;44.712;2023-04-09T02:08:33;80667.34;;;-0.51;55.36
62680;BME280;68213;40.528;44.712;2023-04-09T02:09:36;80666.28;;;-0.55;55.17
62680;BME280;68213;40.528;44.712;2023-04-09T02:10:39;80661.28;;;-0.61;54.38
62680;BME280;68213;40.528;44.712;2023-04-09T02:11:41;80673.69;;;-0.59;54.52
62680;BME280;68213;40.528;44.712;2023-04-09T02:12:49;80680.56;;;-0.62;54.19
62680;BME280;68213;40.528;44.712;2023-04-09T02:13:54;80685.41;;;-0.58;53.66
62680;BME280;68213;40.528;44.712;2023-04-09T02:15:16;80699.38;;;-0.54;53.94
62680;BME280;68213;40.528;44.712;2023-04-09T02:16:20;80694.81;;;-0.69;54.60
62680;BME280;68213;40.528;44.712;2023-04-09T02:17:21;80694.16;;;-0.61;52.29
62680;BME280;68213;40.528;44.712;2023-04-09T02:18:26;80667.13;;;-0.68;51.88
62680;BME280;68213;40.528;44.712;2023-04-09T02:19:41;80681.31;;;-0.46;52.30
62680;BME280;68213;40.528;44.712;2023-04-09T02:20:42;80685.66;;;-0.41;52.42
62680;BME280;68213;40.528;44.712;2023-04-09T02:21:43;80690.38;;;-0.60;53.78
62680;BME280;68213;40.528;44.712;2023-04-09T02:22:46;80689.06;;;-0.46;53.04
62680;BME280;68213;40.528;44.712;2023-04-09T02:23:48;80677.34;;;-0.47;52.71
62680;BME280;68213;40.528;44.712;2023-04-09T02:24:49;80694.69;;;-0.26;52.74
62680;BME280;68213;40.528;44.712;2023-04-09T02:25:51;80697.47;;;-0.17;52.61
62680;BME280;68213;40.528;44.712;2023-04-09T02:26:55;80696.28;;;-0.08;52.82
62680;BME280;68213;40.528;44.712;2023-04-09T02:27:55;80693.03;;;-0.01;52.89
62680;BME280;68213;40.528;44.712;2023-04-09T02:28:56;80705.13;;;0.05;52.26
62680;BME280;68213;40.528;44.712;2023-04-09T02:29:59;80698.59;;;0.04;52.22
62680;BME280;68213;40.528;44.712;2023-04-09T02:31:00;80712.03;;;0.10;52.15
62680;BME280;68213;40.528;44.712;2023-04-09T02:32:00;80707.22;;;0.14;51.95
62680;BME280;68213;40.528;44.712;2023-04-09T02:33:01;80708.28;;;0.19;51.94
62680;BME280;68213;40.528;44.712;2023-04-09T02:34:01;80709.13;;;0.21;52.08
62680;BME280;68213;40.528;44.712;2023-04-09T02:35:02;80709.28;;;0.15;53.50
62680;BME280;68213;40.528;44.712;2023-04-09T02:36:04;80712.38;;;0.06;53.30
62680;BME280;68213;40.528;44.712;2023-04-09T02:37:05;80711.00;;;0.05;52.96
62680;BME280;68213;40.528;44.712;2023-04-09T02:38:05;80712.38;;;0.06;51.63
62680;BME280;68213;40.528;44.712;2023-04-09T02:39:07;80713.06;;;0.07;51.74
62680;BME280;68213;40.528;44.712;2023-04-09T02:40:08;80708.75;;;0.09;51.67
62680;BME280;68213;40.528;44.712;2023-04-09T02:41:09;80714.78;;;0.12;51.88
62680;BME280;68213;40.528;44.712;2023-04-09T02:42:10;80689.25;;;0.01;51.83
62680;BME280;68213;40.528;44.712;2023-04-09T02:43:10;80701.00;;;0.09;53.08
62680;BME280;68213;40.528;44.712;2023-04-09T02:44:11;80706.88;;;0.10;52.58
62680;BME280;68213;40.528;44.712;2023-04-09T02:45:12;80705.50;;;0.09;52.53
62680;BME280;68213;40.528;44.712;2023-04-09T02:46:12;80714.44;;;0.08;52.87
62680;BME280;68213;40.528;44.712;2023-04-09T02:47:13;80706.16;;;0.09;52.73
62680;BME280;68213;40.528;44.712;2023-04-09T02:48:13;80712.03;;;0.10;52.56
62680;BME280;68213;40.528;44.712;2023-04-09T02:49:14;80712.06;;;-0.27;55.97
62680;BME280;68213;40.528;44.712;2023-04-09T02:50:16;80716.03;;;-0.26;55.29
62680;BME280;68213;40.528;44.712;2023-04-09T02:51:17;80713.25;;;-0.36;54.91
62680;BME280;68213;40.528;44.712;2023-04-09T02:52:18;80714.53;;;-0.50;54.82
62680;BME280;68213;40.528;44.712;2023-04-09T02:53:19;80716.75;;;-0.54;54.59
62680;BME280;68213;40.528;44.712;2023-04-09T02:54:20;80711.78;;;-0.52;54.76
62680;BME280;68213;40.528;44.712;2023-04-09T02:55:21;80712.69;;;-0.42;54.19
62680;BME280;68213;40.528;44.712;2023-04-09T02:56:22;80710.44;;;-0.45;56.08
62680;BME280;68213;40.528;44.712;2023-04-09T02:57:23;80703.56;;;-0.43;55.94
62680;BME280;68213;40.528;44.712;2023-04-09T02:58:23;80707.00;;;-0.40;55.54
62680;BME280;68213;40.528;44.712;2023-04-09T02:59:24;80705.50;;;-0.36;54.69
62680;BME280;68213;40.528;44.712;2023-04-09T03:00:24;80712.84;;;-0.40;54.41
62680;BME280;68213;40.528;44.712;2023-04-09T03:01:25;80713.91;;;-0.35;54.68
62680;BME280;68213;40.528;44.712;2023-04-09T03:02:26;80710.13;;;-0.34;54.97
62680;BME280;68213;40.528;44.712;2023-04-09T03:03:26;80714.44;;;-0.37;54.87
62680;BME280;68213;40.528;44.712;2023-04-09T03:04:30;80689.06;;;-0.46;55.21
62680;BME280;68213;40.528;44.712;2023-04-09T03:05:31;80713.25;;;-0.28;54.27
62680;BME280;68213;40.528;44.712;2023-04-09T03:06:31;80716.56;;;-0.27;54.30
62680;BME280;68213;40.528;44.712;2023-04-09T03:07:32;80722.66;;;-0.46;57.06
62680;BME280;68213;40.528;44.712;2023-04-09T03:08:33;80731.00;;;-0.61;58.06
62680;BME280;68213;40.528;44.712;2023-04-09T03:09:34;80730.59;;;-0.73;56.79
62680;BME280;68213;40.528;44.712;2023-04-09T03:10:34;80725.16;;;-0.61;53.85
62680;BME280;68213;40.528;44.712;2023-04-09T03:11:35;80706.59;;;-0.52;53.15
62680;BME280;68213;40.528;44.712;2023-04-09T03:12:35;80713.34;;;-0.49;54.96
62680;BME280;68213;40.528;44.712;2023-04-09T03:13:39;80717.84;;;-0.42;54.11
62680;BME280;68213;40.528;44.712;2023-04-09T03:14:40;80729.22;;;-0.37;51.77
62680;BME280;68213;40.528;44.712;2023-04-09T03:15:40;80729.09;;;-0.32;53.22
62680;BME280;68213;40.528;44.712;2023-04-09T03:16:41;80721.88;;;-0.25;53.18
62680;BME280;68213;40.528;44.712;2023-04-09T03:17:41;80716.06;;;-0.18;50.92
62680;BME280;68213;40.528;44.712;2023-04-09T03:18:42;80711.94;;;-0.13;50.43
62680;BME280;68213;40.528;44.712;2023-04-09T03:19:43;80714.91;;;-0.09;53.16
62680;BME280;68213;40.528;44.712;2023-04-09T03:20:43;80706.75;;;-0.21;56.63
62680;BME280;68213;40.528;44.712;2023-04-09T03:21:44;80723.16;;;-0.11;52.08
62680;BME280;68213;40.528;44.712;2023-04-09T03:22:48;80723.34;;;-0.09;50.02
62680;BME280;68213;40.528;44.712;2023-04-09T03:23:51;80701.47;;;-0.08;49.74
62680;BME280;68213;40.528;44.712;2023-04-09T03:24:51;80707.56;;;0.10;50.14
62680;BME280;68213;40.528;44.712;2023-04-09T03:26:02;80708.59;;;0.15;51.21
62680;BME280;68213;40.528;44.712;2023-04-09T03:27:04;80719.47;;;0.21;52.09
62680;BME280;68213;40.528;44.712;2023-04-09T03:28:05;80724.47;;;0.19;51.06
62680;BME280;68213;40.528;44.712;2023-04-09T03:29:06;80715.00;;;0.22;50.47
62680;BME280;68213;40.528;44.712;2023-04-09T03:30:07;80715.16;;;0.24;51.52
62680;BME280;68213;40.528;44.712;2023-04-09T03:31:07;80723.47;;;0.30;51.19
62680;BME280;68213;40.528;44.712;2023-04-09T03:32:10;80732.59;;;0.31;51.98
62680;BME280;68213;40.528;44.712;2023-04-09T03:33:11;80728.97;;;0.26;53.28
62680;BME280;68213;40.528;44.712;2023-04-09T03:34:11;80727.78;;;0.27;52.07
62680;BME280;68213;40.528;44.712;2023-04-09T03:35:12;80725.56;;;0.31;50.98
62680;BME280;68213;40.528;44.712;2023-04-09T03:36:13;80712.38;;;0.14;50.01
62680;BME280;68213;40.528;44.712;2023-04-09T03:37:14;80737.28;;;0.40;49.50
62680;BME280;68213;40.528;44.712;2023-04-09T03:38:15;80722.16;;;0.44;49.89
62680;BME280;68213;40.528;44.712;2023-04-09T03:39:16;80718.00;;;0.49;49.48
62680;BME280;68213;40.528;44.712;2023-04-09T03:40:16;80721.81;;;0.48;49.39
62680;BME280;68213;40.528;44.712;2023-04-09T03:41:17;80741.13;;;0.47;51.00
62680;BME280;68213;40.528;44.712;2023-04-09T03:42:18;80726.97;;;0.48;51.39
62680;BME280;68213;40.528;44.712;2023-04-09T03:43:18;80723.16;;;0.49;50.95
62680;BME280;68213;40.528;44.712;2023-04-09T03:44:19;80730.41;;;0.43;52.52
62680;BME280;68213;40.528;44.712;2023-04-09T03:45:19;80735.94;;;0.47;50.68
62680;BME280;68213;40.528;44.712;2023-04-09T03:46:20;80736.31;;;0.59;48.27
62680;BME280;68213;40.528;44.712;2023-04-09T03:47:21;80735.97;;;0.70;47.58
62680;BME280;68213;40.528;44.712;2023-04-09T03:48:21;80723.06;;;0.78;47.53
62680;BME280;68213;40.528;44.712;2023-04-09T03:49:22;80703.19;;;0.73;47.67
62680;BME280;68213;40.528;44.712;2023-04-09T03:50:23;80723.06;;;0.93;47.70
62680;BME280;68213;40.528;44.712;2023-04-09T03:51:23;80726.19;;;1.00;48.55
62680;BME280;68213;40.528;44.712;2023-04-09T03:52:24;80724.13;;;1.06;49.13
62680;BME280;68213;40.528;44.712;2023-04-09T03:53:25;80726.03;;;1.13;48.53
62680;BME280;68213;40.528;44.712;2023-04-09T03:54:28;80720.66;;;1.11;47.76
62680;BME280;68213;40.528;44.712;2023-04-09T03:55:29;80728.09;;;1.22;46.29
62680;BME280;68213;40.528;44.712;2023-04-09T03:56:30;80705.81;;;1.19;46.27
62680;BME280;68213;40.528;44.712;2023-04-09T03:57:30;80729.97;;;1.37;46.58
62680;BME280;68213;40.528;44.712;2023-04-09T03:58:31;80728.06;;;1.38;48.42
62680;BME280;68213;40.528;44.712;2023-04-09T03:59:32;80736.03;;;1.32;47.07
62680;BME280;68213;40.528;44.712;2023-04-09T04:00:35;80730.16;;;1.39;45.44
62680;BME280;68213;40.528;44.712;2023-04-09T04:01:36;80732.75;;;1.47;45.41
62680;BME280;68213;40.528;44.712;2023-04-09T04:02:38;80743.59;;;1.53;46.48
62680;BME280;68213;40.528;44.712;2023-04-09T04:03:39;80747.75;;;1.56;45.14
62680;BME280;68213;40.528;44.712;2023-04-09T04:04:40;80739.81;;;1.62;44.69
62680;BME280;68213;40.528;44.712;2023-04-09T04:05:41;80740.66;;;1.72;44.94
62680;BME280;68213;40.528;44.712;2023-04-09T04:06:41;80739.44;;;1.81;45.09
62680;BME280;68213;40.528;44.712;2023-04-09T04:07:42;80744.47;;;1.79;44.97
62680;BME280;68213;40.528;44.712;2023-04-09T04:08:43;80745.19;;;1.56;45.72
62680;BME280;68213;40.528;44.712;2023-04-09T04:09:44;80744.97;;;1.70;46.46
62680;BME280;68213;40.528;44.712;2023-04-09T04:10:44;80710.09;;;1.55;45.45
62680;BME280;68213;40.528;44.712;2023-04-09T04:11:45;80734.59;;;1.85;45.24
62680;BME280;68213;40.528;44.712;2023-04-09T04:12:45;80738.41;;;1.92;45.74
62680;BME280;68213;40.528;44.712;2023-04-09T04:13:46;80743.56;;;2.00;45.56
62680;BME280;68213;40.528;44.712;2023-04-09T04:14:47;80751.81;;;2.06;45.42
62680;BME280;68213;40.528;44.712;2023-04-09T04:15:47;80752.00;;;2.08;44.90
62680;BME280;68213;40.528;44.712;2023-04-09T04:16:48;80738.00;;;2.11;44.12
62680;BME280;68213;40.528;44.712;2023-04-09T04:17:48;80738.16;;;2.13;44.03
62680;BME280;68213;40.528;44.712;2023-04-09T04:18:49;80747.34;;;2.06;44.32
62680;BME280;68213;40.528;44.712;2023-04-09T04:19:50;80752.53;;;2.06;44.93
62680;BME280;68213;40.528;44.712;2023-04-09T04:20:53;80757.19;;;2.08;45.33
62680;BME280;68213;40.528;44.712;2023-04-09T04:21:54;80749.09;;;2.04;46.28
62680;BME280;68213;40.528;44.712;2023-04-09T04:22:54;80747.34;;;2.06;45.84
62680;BME280;68213;40.528;44.712;2023-04-09T04:23:55;80740.41;;;2.09;46.25
62680;BME280;68213;40.528;44.712;2023-04-09T04:24:56;80758.91;;;2.13;46.63
62680;BME280;68213;40.528;44.712;2023-04-09T04:25:56;80751.31;;;2.08;45.35
62680;BME280;68213;40.528;44.712;2023-04-09T04:26:57;80760.47;;;2.16;45.67
62680;BME280;68213;40.528;44.712;2023-04-09T04:27:58;80748.84;;;2.25;43.69
62680;BME280;68213;40.528;44.712;2023-04-09T04:28:58;80756.06;;;2.42;43.62
62680;BME280;68213;40.528;44.712;2023-04-09T04:29:59;80759.47;;;2.52;43.81
62680;BME280;68213;40.528;44.712;2023-04-09T04:31:01;80758.59;;;2.58;44.31
62680;BME280;68213;40.528;44.712;2023-04-09T04:32:02;80767.63;;;2.57;44.38
62680;BME280;68213;40.528;44.712;2023-04-09T04:33:02;80768.97;;;2.58;44.64
62680;BME280;68213;40.528;44.712;2023-04-09T04:34:03;80765.72;;;2.49;45.14
62680;BME280;68213;40.528;44.712;2023-04-09T04:35:04;80756.06;;;2.42;45.22
62680;BME280;68213;40.528;44.712;2023-04-09T04:36:10;80761.75;;;2.48;45.49
62680;BME280;68213;40.528;44.712;2023-04-09T04:37:12;80760.16;;;2.61;45.22
62680;BME280;68213;40.528;44.712;2023-04-09T04:38:13;80781.56;;;2.69;45.55
62680;BME280;68213;40.528;44.712;2023-04-09T04:39:13;80774.44;;;2.77;44.98
62680;BME280;68213;40.528;44.712;2023-04-09T04:40:14;80775.00;;;2.68;44.80
62680;BME280;68213;40.528;44.712;2023-04-09T04:41:15;80793.88;;;2.61;44.56
62680;BME280;68213;40.528;44.712;2023-04-09T04:42:16;80772.94;;;2.59;44.54
62680;BME280;68213;40.528;44.712;2023-04-09T04:43:17;80775.41;;;2.57;45.09
62680;BME280;68213;40.528;44.712;2023-04-09T04:44:18;80780.38;;;2.62;45.01
62680;BME280;68213;40.528;44.712;2023-04-09T04:45:18;80748.63;;;2.38;44.90
62680;BME280;68213;40.528;44.712;2023-04-09T04:46:19;80784.53;;;2.58;44.79
62680;BME280;68213;40.528;44.712;2023-04-09T04:47:19;80790.97;;;2.57;44.55
62680;BME280;68213;40.528;44.712;2023-04-09T04:48:21;80784.06;;;2.51;44.82
62680;BME280;68213;40.528;44.712;2023-04-09T04:49:22;80776.59;;;2.56;45.11
62680;BME280;68213;40.528;44.712;2023-04-09T04:50:22;80784.72;;;2.60;45.11
62680;BME280;68213;40.528;44.712;2023-04-09T04:51:23;80771.75;;;2.60;44.87
62680;BME280;68213;40.528;44.712;2023-04-09T04:52:24;80758.28;;;2.53;44.59
62680;BME280;68213;40.528;44.712;2023-04-09T04:53:25;80783.44;;;2.76;44.42
62680;BME280;68213;40.528;44.712;2023-04-09T04:54:26;80762.75;;;2.61;44.65
62680;BME280;68213;40.528;44.712;2023-04-09T04:55:27;80796.06;;;2.80;44.15
62680;BME280;68213;40.528;44.712;2023-04-09T04:56:27;80776.16;;;2.82;44.12
62680;BME280;68213;40.528;44.712;2023-04-09T04:57:28;80783.19;;;2.97;44.25
62680;BME280;68213;40.528;44.712;2023-04-09T04:58:28;80786.63;;;3.00;44.42
62680;BME280;68213;40.528;44.712;2023-04-09T04:59:30;80785.38;;;3.09;44.65
62680;BME280;68213;40.528;44.712;2023-04-09T05:00:30;80800.22;;;3.16;43.69
62680;BME280;68213;40.528;44.712;2023-04-09T05:01:31;80796.78;;;3.13;43.67
62680;BME280;68213;40.528;44.712;2023-04-09T05:02:32;80794.72;;;3.12;43.16
62680;BME280;68213;40.528;44.712;2023-04-09T05:03:33;80791.75;;;3.15;44.04
62680;BME280;68213;40.528;44.712;2023-04-09T05:04:33;80793.25;;;3.26;43.44
62680;BME280;68213;40.528;44.712;2023-04-09T05:05:34;80791.69;;;3.31;43.60
62680;BME280;68213;40.528;44.712;2023-04-09T05:06:36;80808.00;;;3.24;42.99
62680;BME280;68213;40.528;44.712;2023-04-09T05:07:36;80795.69;;;3.24;43.04
62680;BME280;68213;40.528;44.712;2023-04-09T05:08:37;80798.41;;;3.34;42.72
62680;BME280;68213;40.528;44.712;2023-04-09T05:09:38;80797.66;;;3.41;43.18
62680;BME280;68213;40.528;44.712;2023-04-09T05:10:41;80798.38;;;3.42;42.58
62680;BME280;68213;40.528;44.712;2023-04-09T05:11:43;80794.91;;;3.39;42.55
62680;BME280;68213;40.528;44.712;2023-04-09T05:12:45;80802.19;;;3.41;42.95
62680;BME280;68213;40.528;44.712;2023-04-09T05:13:46;80795.50;;;3.30;42.91
62680;BME280;68213;40.528;44.712;2023-04-09T05:14:47;80773.72;;;3.17;43.94
62680;BME280;68213;40.528;44.712;2023-04-09T05:15:47;80784.50;;;3.39;44.03
62680;BME280;68213;40.528;44.712;2023-04-09T05:16:48;80786.22;;;3.44;42.96
62680;BME280;68213;40.528;44.712;2023-04-09T05:17:51;80794.34;;;3.48;43.07
62680;BME280;68213;40.528;44.712;2023-04-09T05:18:52;80775.97;;;3.46;43.05
62680;BME280;68213;40.528;44.712;2023-04-09T05:19:54;80720.81;;;3.05;42.97
62680;BME280;68213;40.528;44.712;2023-04-09T05:20:55;80784.19;;;3.68;43.14
62680;BME280;68213;40.528;44.712;2023-04-09T05:21:56;80787.16;;;3.64;42.71
62680;BME280;68213;40.528;44.712;2023-04-09T05:22:56;80782.94;;;3.69;42.77
62680;BME280;68213;40.528;44.712;2023-04-09T05:23:57;80784.84;;;3.69;42.60
62680;BME280;68213;40.528;44.712;2023-04-09T05:24:58;80787.56;;;3.78;42.58
62680;BME280;68213;40.528;44.712;2023-04-09T05:25:59;80793.22;;;3.85;42.60
62680;BME280;68213;40.528;44.712;2023-04-09T05:26:59;80793.72;;;3.91;42.58
62680;BME280;68213;40.528;44.712;2023-04-09T05:28:00;80790.38;;;3.98;42.68
62680;BME280;68213;40.528;44.712;2023-04-09T05:29:01;80785.63;;;4.04;41.92
62680;BME280;68213;40.528;44.712;2023-04-09T05:30:02;80783.31;;;3.91;41.79
62680;BME280;68213;40.528;44.712;2023-04-09T05:31:04;80786.91;;;3.95;42.38
62680;BME280;68213;40.528;44.712;2023-04-09T05:32:10;80786.84;;;4.03;42.27
62680;BME280;68213;40.528;44.712;2023-04-09T05:33:10;80788.53;;;4.08;42.59
62680;BME280;68213;40.528;44.712;2023-04-09T05:34:11;80784.03;;;4.09;40.24
62680;BME280;68213;40.528;44.712;2023-04-09T05:35:12;80794.22;;;4.15;39.65